Terminal Aerodrome Forecast
Issued by NWS Cleveland, OH

Home | Current Version | Previous Version | Text Only | Print | Product List | Glossary On
Versions: 1 2 3 4 5 6 7 8 9 10 11 12 13 14 15 16 17 18 19 20 21 22 23 24 25 26
000
FTUS41 KCLE 311700
TAFCAK
TAF
KCAK 311734Z 3118/0118 27008KT P6SM SCT045
     FM010000 22003KT P6SM SKC
      TEMPO 0110/0113 5SM BR
     FM011400 25003KT P6SM SKC=

USA.gov is the U.S. government's official web portal to all federal, state and local government web resources and services.